Time;durP1;ratioP1;P1;durP2;ratioP2;P2;SDS_P1;SDS_P2;PMS_P1;PMS_P2;Temp;Humidity;BMP_temperature;BMP_pressure;BME280_temperature;BME280_humidity;BME280_pressure;Samples;Min_cycle;Max_cycle;Signal;HPM_P1;HPM_P2
2020/12/15 00:04:26;;;;;;;11.75;7.78;;;;;;;;;;4993223;28;20102;-85
2020/12/15 00:10:25;;;;;;;9.20;6.85;;;;;;;;;;5011680;28;20092;-86
2020/12/15 00:13:47;;;;;;;10.43;7.47;;;;;;;;;;5009530;28;20050;-86
2020/12/15 00:16:25;;;;;;;10.07;7.22;;;;;;;;;;5012427;28;20046;-86
2020/12/15 00:18:54;;;;;;;13.13;7.47;;;;;;;;;;5013715;28;20042;-85
2020/12/15 00:21:31;;;;;;;16.45;9.77;;;;;;;;;;5012883;28;20047;-86
2020/12/15 00:24:01;;;;;;;13.77;8.73;;;;;;;;;;5014757;28;20101;-86
2020/12/15 00:26:38;;;;;;;13.60;7.57;;;;;;;;;;4982849;28;20641;-86
2020/12/15 00:31:59;;;;;;;14.05;9.27;;;;;;;;;;4999984;28;20046;-86
2020/12/15 00:34:34;;;;;;;9.95;6.82;;;;;;;;;;5014393;28;20038;-86
2020/12/15 00:37:12;;;;;;;9.43;7.00;;;;;;;;;;5012331;28;20053;-86
2020/12/15 00:39:40;;;;;;;10.95;7.78;;;;;;;;;;5012905;28;20097;-86
2020/12/15 00:42:21;;;;;;;12.10;8.07;;;;;;;;;;5013227;28;20425;-86
2020/12/15 00:47:54;;;;;;;13.93;8.50;;;;;;;;;;5014221;28;20078;-86
2020/12/15 00:53:34;;;;;;;11.57;7.47;;;;;;;;;;4998764;28;20114;-86
2020/12/15 00:56:10;;;;;;;12.25;8.60;;;;;;;;;;5013964;28;20049;-87
2020/12/15 00:58:42;;;;;;;11.93;7.22;;;;;;;;;;5013876;28;20062;-86
2020/12/15 01:04:05;;;;;;;11.95;8.18;;;;;;;;;;5014449;28;20038;-86
2020/12/15 01:06:38;;;;;;;12.40;7.65;;;;;;;;;;5013420;28;20046;-86
2020/12/15 01:09:10;;;;;;;10.00;7.30;;;;;;;;;;4996435;28;20057;-86
2020/12/15 01:11:50;;;;;;;10.65;7.30;;;;;;;;;;4964037;28;20054;-85
2020/12/15 01:14:25;;;;;;;11.88;7.55;;;;;;;;;;4998918;28;20053;-86
2020/12/15 01:20:34;;;;;;;11.15;7.43;;;;;;;;;;5016263;28;20137;-87
2020/12/15 01:23:03;;;;;;;9.95;6.30;;;;;;;;;;5000069;28;20038;-86
2020/12/15 01:25:35;;;;;;;11.35;7.55;;;;;;;;;;5017355;28;20081;-86
2020/12/15 01:28:27;;;;;;;13.40;8.60;;;;;;;;;;5016876;28;20046;-86
2020/12/15 01:37:05;;;;;;;22.98;10.75;;;;;;;;;;5015871;28;20058;-86
2020/12/15 01:39:49;;;;;;;16.70;10.68;;;;;;;;;;5014765;28;20047;-86
2020/12/15 01:45:24;;;;;;;28.92;10.80;;;;;;;;;;5015567;28;20065;-87
2020/12/15 01:47:58;;;;;;;74.88;20.40;;;;;;;;;;5016351;28;20114;-86
2020/12/15 01:54:09;;;;;;;49.35;16.48;;;;;;;;;;5015765;28;20069;-87
2020/12/15 01:56:58;;;;;;;27.65;12.13;;;;;;;;;;5015467;28;20101;-85
2020/12/15 01:59:46;;;;;;;54.75;12.93;;;;;;;;;;5013171;28;20050;-87
2020/12/15 02:02:12;;;;;;;55.45;13.55;;;;;;;;;;5009708;23;20050;-79
2020/12/15 02:04:38;;;;;;;33.30;11.82;;;;;;;;;;5016238;28;20046;-79
2020/12/15 02:07:05;;;;;;;44.08;13.18;;;;;;;;;;5033627;28;20406;-79
2020/12/15 02:09:31;;;;;;;50.22;13.98;;;;;;;;;;5015376;28;20046;-79
2020/12/15 02:11:57;;;;;;;64.75;13.52;;;;;;;;;;5014931;28;20481;-79
2020/12/15 02:14:23;;;;;;;69.82;16.42;;;;;;;;;;5015695;28;20042;-79
2020/12/15 02:16:50;;;;;;;23.77;11.57;;;;;;;;;;5015564;28;20054;-79
2020/12/15 02:19:17;;;;;;;24.90;10.48;;;;;;;;;;5020967;28;20050;-79
2020/12/15 02:21:51;;;;;;;26.17;10.88;;;;;;;;;;5031082;28;20100;-79
2020/12/15 02:24:17;;;;;;;33.92;11.43;;;;;;;;;;5024945;28;20084;-79
2020/12/15 02:26:43;;;;;;;21.92;10.48;;;;;;;;;;5023198;28;20129;-80
2020/12/15 02:29:09;;;;;;;24.27;10.25;;;;;;;;;;5016261;28;20056;-79
2020/12/15 02:31:35;;;;;;;18.58;10.48;;;;;;;;;;5023505;28;20073;-78
2020/12/15 02:34:01;;;;;;;50.70;14.18;;;;;;;;;;5035477;28;20046;-79
2020/12/15 02:36:28;;;;;;;25.88;11.05;;;;;;;;;;5034140;28;20053;-79
2020/12/15 02:38:54;;;;;;;21.75;10.52;;;;;;;;;;5020238;28;20407;-79
2020/12/15 02:41:20;;;;;;;21.88;10.43;;;;;;;;;;5034548;28;20061;-79
2020/12/15 02:43:46;;;;;;;33.65;12.45;;;;;;;;;;5034788;28;20046;-79
2020/12/15 02:46:12;;;;;;;29.30;11.15;;;;;;;;;;5034794;28;20049;-79
2020/12/15 02:48:39;;;;;;;54.25;13.02;;;;;;;;;;5018739;28;20053;-79
2020/12/15 02:51:05;;;;;;;22.52;10.30;;;;;;;;;;5015038;28;20045;-79
2020/12/15 02:53:31;;;;;;;13.32;8.70;;;;;;;;;;5015674;28;20140;-79
2020/12/15 02:55:58;;;;;;;12.20;8.65;;;;;;;;;;5019248;28;20041;-79
2020/12/15 02:58:24;;;;;;;21.05;10.68;;;;;;;;;;5021544;28;20053;-79
2020/12/15 03:00:50;;;;;;;17.73;9.73;;;;;;;;;;5023130;28;20045;-79
2020/12/15 03:03:15;;;;;;;15.85;9.77;;;;;;;;;;5034340;28;20105;-79
2020/12/15 03:05:41;;;;;;;16.70;9.52;;;;;;;;;;5023828;28;20053;-79
2020/12/15 03:08:07;;;;;;;15.05;9.40;;;;;;;;;;5025056;28;20052;-79
2020/12/15 03:10:33;;;;;;;16.42;10.00;;;;;;;;;;5028349;28;20518;-79
2020/12/15 03:13:00;;;;;;;14.98;10.20;;;;;;;;;;5024707;28;20049;-79
2020/12/15 03:15:26;;;;;;;13.48;9.93;;;;;;;;;;5029578;28;20046;-79
2020/12/15 03:17:52;;;;;;;15.23;10.77;;;;;;;;;;5015449;28;20046;-78
2020/12/15 03:20:18;;;;;;;13.52;9.00;;;;;;;;;;5026183;28;20060;-79
2020/12/15 03:22:44;;;;;;;14.00;9.55;;;;;;;;;;5033628;28;20054;-79
2020/12/15 03:25:09;;;;;;;13.43;8.95;;;;;;;;;;5024910;28;20097;-79
2020/12/15 03:27:35;;;;;;;18.00;11.07;;;;;;;;;;5033134;28;20522;-78
2020/12/15 03:30:03;;;;;;;19.33;12.35;;;;;;;;;;5019320;28;20061;-78
2020/12/15 03:32:29;;;;;;;18.65;11.23;;;;;;;;;;5013474;28;20149;-78
2020/12/15 03:34:54;;;;;;;37.15;21.13;;;;;;;;;;5012764;28;20090;-78
2020/12/15 03:37:20;;;;;;;66.10;31.17;;;;;;;;;;5013674;28;20046;-78
2020/12/15 03:39:46;;;;;;;53.85;26.17;;;;;;;;;;5014177;28;20439;-80
2020/12/15 03:42:12;;;;;;;18.55;12.13;;;;;;;;;;5014932;28;20052;-80
2020/12/15 03:44:39;;;;;;;21.05;14.20;;;;;;;;;;5015027;28;20940;-80
2020/12/15 03:47:06;;;;;;;15.38;10.20;;;;;;;;;;5014339;28;20412;-79
2020/12/15 03:49:32;;;;;;;14.00;9.73;;;;;;;;;;5020505;28;20052;-79
2020/12/15 03:51:58;;;;;;;14.18;9.60;;;;;;;;;;5014631;28;20653;-79
2020/12/15 03:54:24;;;;;;;13.18;8.45;;;;;;;;;;5032846;28;20061;-79
2020/12/15 03:56:50;;;;;;;13.30;8.60;;;;;;;;;;5038749;28;20411;-80
2020/12/15 03:59:17;;;;;;;10.20;8.05;;;;;;;;;;5038559;28;20421;-79
2020/12/15 04:01:43;;;;;;;11.88;8.57;;;;;;;;;;5036785;28;20103;-79
2020/12/15 04:04:10;;;;;;;15.07;9.73;;;;;;;;;;5017271;28;20053;-78
2020/12/15 04:06:36;;;;;;;12.85;9.02;;;;;;;;;;5036740;28;20045;-78
2020/12/15 04:09:02;;;;;;;11.98;9.05;;;;;;;;;;5030707;28;20547;-78
2020/12/15 04:11:27;;;;;;;10.52;7.70;;;;;;;;;;5026021;28;20050;-78
2020/12/15 04:13:53;;;;;;;11.30;8.10;;;;;;;;;;5016083;28;20456;-78
2020/12/15 04:16:19;;;;;;;11.07;8.05;;;;;;;;;;5016467;28;20052;-78
2020/12/15 04:18:45;;;;;;;13.00;9.18;;;;;;;;;;5019769;28;20049;-78
2020/12/15 04:21:12;;;;;;;10.98;7.90;;;;;;;;;;5018216;28;20092;-78
2020/12/15 04:23:38;;;;;;;10.95;8.05;;;;;;;;;;5016914;28;20068;-78
2020/12/15 04:26:04;;;;;;;11.38;8.27;;;;;;;;;;5026834;28;20475;-78
2020/12/15 04:28:30;;;;;;;12.52;8.73;;;;;;;;;;5035463;28;20046;-78
2020/12/15 04:30:56;;;;;;;17.52;10.73;;;;;;;;;;5035525;28;20053;-78
2020/12/15 04:33:22;;;;;;;15.40;9.85;;;;;;;;;;5035037;28;20107;-78
2020/12/15 04:35:48;;;;;;;11.00;8.02;;;;;;;;;;5034748;28;20050;-78
2020/12/15 04:38:14;;;;;;;11.15;8.63;;;;;;;;;;5035780;28;20046;-78
2020/12/15 04:40:40;;;;;;;13.18;8.70;;;;;;;;;;5034218;28;20046;-78
2020/12/15 04:43:08;;;;;;;12.63;9.45;;;;;;;;;;5034954;28;20049;-78
2020/12/15 04:45:35;;;;;;;11.38;8.57;;;;;;;;;;5035046;28;20468;-78
2020/12/15 04:48:07;;;;;;;14.07;8.55;;;;;;;;;;5035348;28;20060;-78
2020/12/15 04:50:35;;;;;;;12.05;8.85;;;;;;;;;;5028391;28;20049;-78
2020/12/15 04:53:07;;;;;;;12.30;8.73;;;;;;;;;;5035484;28;20076;-78
2020/12/15 04:55:34;;;;;;;11.43;8.30;;;;;;;;;;5033586;28;20495;-78
2020/12/15 04:58:00;;;;;;;11.38;7.65;;;;;;;;;;5035182;28;20132;-79
2020/12/15 05:00:27;;;;;;;13.80;9.07;;;;;;;;;;5029767;28;20466;-79
2020/12/15 05:02:53;;;;;;;12.57;9.57;;;;;;;;;;5027939;28;20045;-78
2020/12/15 05:05:20;;;;;;;10.88;7.85;;;;;;;;;;5035703;28;20510;-79
2020/12/15 05:07:46;;;;;;;11.55;8.43;;;;;;;;;;5036374;28;20037;-79
2020/12/15 05:10:17;;;;;;;13.48;9.55;;;;;;;;;;5036948;28;20046;-78
2020/12/15 05:12:45;;;;;;;13.75;8.85;;;;;;;;;;5036512;28;20410;-78
2020/12/15 05:15:12;;;;;;;14.27;9.27;;;;;;;;;;5034492;28;20494;-78
2020/12/15 05:17:39;;;;;;;13.68;8.35;;;;;;;;;;5036657;28;20065;-79
2020/12/15 05:20:05;;;;;;;11.20;7.35;;;;;;;;;;5037211;28;20077;-79
2020/12/15 05:22:39;;;;;;;11.75;9.07;;;;;;;;;;5034449;28;20072;-78
2020/12/15 05:25:05;;;;;;;16.75;11.25;;;;;;;;;;5016294;28;20105;-79
2020/12/15 05:27:31;;;;;;;11.70;8.40;;;;;;;;;;5050648;28;20049;-78
2020/12/15 05:30:06;;;;;;;10.75;8.30;;;;;;;;;;5050918;28;20049;-79
2020/12/15 05:32:32;;;;;;;13.35;9.15;;;;;;;;;;5043038;28;20056;-79
2020/12/15 05:35:06;;;;;;;12.15;8.73;;;;;;;;;;5025186;28;20045;-77
2020/12/15 05:37:32;;;;;;;11.60;8.45;;;;;;;;;;5042484;28;20450;-76
2020/12/15 05:40:03;;;;;;;11.27;8.18;;;;;;;;;;5039202;28;20045;-76
2020/12/15 05:42:30;;;;;;;11.85;8.25;;;;;;;;;;5041951;28;20049;-77
2020/12/15 05:44:57;;;;;;;15.75;10.02;;;;;;;;;;5033256;28;20045;-76
2020/12/15 05:47:24;;;;;;;11.77;7.70;;;;;;;;;;5049879;28;20072;-76
2020/12/15 05:49:51;;;;;;;12.18;8.63;;;;;;;;;;5037835;28;20660;-77
2020/12/15 05:52:24;;;;;;;11.60;8.10;;;;;;;;;;5036911;28;20049;-76
2020/12/15 05:54:51;;;;;;;12.07;8.52;;;;;;;;;;5033518;28;20100;-77
2020/12/15 05:57:21;;;;;;;14.52;9.70;;;;;;;;;;5023202;28;20049;-77
2020/12/15 05:59:47;;;;;;;12.85;8.07;;;;;;;;;;5014312;28;20042;-77
2020/12/15 06:02:14;;;;;;;13.93;9.18;;;;;;;;;;5015210;28;20054;-77
2020/12/15 06:04:41;;;;;;;12.93;8.77;;;;;;;;;;5026669;28;20481;-76
2020/12/15 06:07:09;;;;;;;12.45;8.98;;;;;;;;;;5023148;28;20508;-77
2020/12/15 06:09:37;;;;;;;13.48;9.02;;;;;;;;;;5031282;28;20586;-76
2020/12/15 06:12:05;;;;;;;16.85;10.75;;;;;;;;;;5031654;28;20056;-77
2020/12/15 06:14:31;;;;;;;16.70;10.93;;;;;;;;;;5032779;28;20081;-77
2020/12/15 06:16:56;;;;;;;16.63;12.00;;;;;;;;;;5033054;28;20057;-78
2020/12/15 06:19:23;;;;;;;18.95;11.40;;;;;;;;;;5033251;28;20112;-77
2020/12/15 06:21:52;;;;;;;14.10;9.90;;;;;;;;;;5034863;28;20056;-78
2020/12/15 06:24:26;;;;;;;12.48;9.65;;;;;;;;;;5033328;28;20049;-77
2020/12/15 06:26:59;;;;;;;14.95;10.80;;;;;;;;;;5032618;28;20495;-77
2020/12/15 06:29:32;;;;;;;16.42;11.27;;;;;;;;;;5033161;28;20072;-77
2020/12/15 06:31:59;;;;;;;13.40;9.52;;;;;;;;;;5034400;28;20060;-77
2020/12/15 06:34:27;;;;;;;19.70;11.57;;;;;;;;;;5033536;28;20041;-78
2020/12/15 06:36:55;;;;;;;16.33;11.57;;;;;;;;;;5033931;28;20060;-78
2020/12/15 06:39:22;;;;;;;15.40;10.02;;;;;;;;;;5036781;28;20136;-77
2020/12/15 06:41:55;;;;;;;12.82;9.07;;;;;;;;;;5037578;28;20091;-78
2020/12/15 06:44:30;;;;;;;15.60;11.60;;;;;;;;;;5036735;28;20069;-78
2020/12/15 06:46:56;;;;;;;27.92;17.20;;;;;;;;;;5035940;28;20491;-77
2020/12/15 06:49:27;;;;;;;21.10;15.60;;;;;;;;;;5037433;28;20112;-77
2020/12/15 06:51:56;;;;;;;16.75;11.90;;;;;;;;;;5035564;28;20069;-77
2020/12/15 06:54:26;;;;;;;16.80;12.55;;;;;;;;;;5035612;28;20045;-77
2020/12/15 06:57:00;;;;;;;17.58;11.30;;;;;;;;;;5036568;28;20053;-77
2020/12/15 06:59:29;;;;;;;16.98;9.77;;;;;;;;;;5034787;28;20119;-77
2020/12/15 07:02:05;;;;;;;19.42;12.02;;;;;;;;;;5034380;28;20100;-78
2020/12/15 07:04:32;;;;;;;14.98;9.40;;;;;;;;;;5034426;28;20045;-77
2020/12/15 07:06:59;;;;;;;13.82;9.48;;;;;;;;;;5032419;28;20112;-76
2020/12/15 07:09:25;;;;;;;17.45;11.00;;;;;;;;;;5032179;28;20049;-76
2020/12/15 07:11:51;;;;;;;18.15;12.27;;;;;;;;;;5032094;28;20107;-79
2020/12/15 07:14:21;;;;;;;18.00;10.93;;;;;;;;;;5036237;28;20049;-76
2020/12/15 07:16:47;;;;;;;14.68;10.75;;;;;;;;;;5032305;28;20060;-76
2020/12/15 07:19:13;;;;;;;17.17;12.00;;;;;;;;;;5032066;28;20056;-77
2020/12/15 07:21:41;;;;;;;13.80;9.70;;;;;;;;;;5032047;28;20049;-76
2020/12/15 07:24:12;;;;;;;14.38;9.27;;;;;;;;;;5031534;28;20120;-77
2020/12/15 07:26:39;;;;;;;13.80;8.98;;;;;;;;;;5032141;28;20148;-76
2020/12/15 07:29:07;;;;;;;14.98;8.82;;;;;;;;;;5031767;28;20053;-76
2020/12/15 07:31:33;;;;;;;12.05;8.07;;;;;;;;;;5031653;28;20574;-77
2020/12/15 07:34:10;;;;;;;12.30;8.38;;;;;;;;;;5032307;28;20423;-76
2020/12/15 07:36:41;;;;;;;13.98;8.93;;;;;;;;;;5031942;28;20053;-76
2020/12/15 07:39:09;;;;;;;16.55;9.48;;;;;;;;;;5031474;28;20565;-76
2020/12/15 07:41:37;;;;;;;14.10;8.95;;;;;;;;;;5031639;28;20084;-76
2020/12/15 07:44:05;;;;;;;12.48;8.73;;;;;;;;;;5031867;28;20112;-77
2020/12/15 07:46:31;;;;;;;13.18;9.05;;;;;;;;;;5031734;28;20121;-76
2020/12/15 07:48:58;;;;;;;11.88;8.23;;;;;;;;;;5031845;28;20056;-77
2020/12/15 07:51:24;;;;;;;17.42;11.98;;;;;;;;;;5033055;28;20080;-77
2020/12/15 07:53:51;;;;;;;19.67;11.05;;;;;;;;;;5031295;28;20683;-76
2020/12/15 07:56:18;;;;;;;12.57;9.98;;;;;;;;;;5031641;28;20049;-77
2020/12/15 07:58:46;;;;;;;15.38;10.00;;;;;;;;;;5031817;28;20081;-76
2020/12/15 08:01:13;;;;;;;11.90;9.10;;;;;;;;;;5031865;28;20543;-79
2020/12/15 08:03:39;;;;;;;12.52;8.82;;;;;;;;;;5034702;28;20064;-77
2020/12/15 08:06:08;;;;;;;12.55;8.52;;;;;;;;;;5031545;28;20053;-77
2020/12/15 08:08:35;;;;;;;14.23;8.98;;;;;;;;;;5031592;28;20046;-76
2020/12/15 08:11:00;;;;;;;14.02;10.15;;;;;;;;;;5031112;28;20116;-76
2020/12/15 08:13:27;;;;;;;10.88;8.18;;;;;;;;;;5030940;28;20045;-76
2020/12/15 08:15:53;;;;;;;12.98;9.40;;;;;;;;;;5033463;28;20103;-77
2020/12/15 08:18:19;;;;;;;13.55;9.07;;;;;;;;;;5033690;28;20049;-77
2020/12/15 08:20:46;;;;;;;12.27;8.88;;;;;;;;;;5031394;28;20136;-77
2020/12/15 08:23:13;;;;;;;11.38;8.57;;;;;;;;;;5031223;28;20104;-77
2020/12/15 08:25:43;;;;;;;15.85;9.70;;;;;;;;;;5031007;28;20049;-76
2020/12/15 08:28:11;;;;;;;12.93;8.98;;;;;;;;;;5034747;28;20144;-79
2020/12/15 08:30:38;;;;;;;10.60;7.32;;;;;;;;;;5034981;28;20045;-79
2020/12/15 08:33:04;;;;;;;10.25;7.38;;;;;;;;;;5026600;28;20110;-78
2020/12/15 08:35:30;;;;;;;12.30;8.60;;;;;;;;;;5033587;28;20072;-78
2020/12/15 08:37:58;;;;;;;13.30;8.57;;;;;;;;;;5033418;28;20045;-78
2020/12/15 08:40:25;;;;;;;12.88;8.55;;;;;;;;;;5035185;28;20499;-79
2020/12/15 08:42:54;;;;;;;14.07;8.82;;;;;;;;;;5038092;28;20090;-79
2020/12/15 08:45:25;;;;;;;13.15;9.05;;;;;;;;;;5038171;28;20056;-80
2020/12/15 08:47:53;;;;;;;14.48;9.65;;;;;;;;;;5037856;28;20045;-79
2020/12/15 08:50:19;;;;;;;17.05;11.25;;;;;;;;;;5038240;28;20064;-80
2020/12/15 08:52:45;;;;;;;12.98;9.68;;;;;;;;;;5037824;28;20464;-79
2020/12/15 08:55:11;;;;;;;12.77;10.23;;;;;;;;;;5038950;28;20099;-80
2020/12/15 08:57:37;;;;;;;10.50;7.60;;;;;;;;;;5037843;28;20050;-80
2020/12/15 09:00:11;;;;;;;11.10;7.53;;;;;;;;;;5039338;28;20115;-80
2020/12/15 09:02:37;;;;;;;10.45;7.47;;;;;;;;;;5041055;28;20045;-80
2020/12/15 09:05:08;;;;;;;12.38;8.13;;;;;;;;;;5040810;28;20487;-80
2020/12/15 09:07:34;;;;;;;11.20;7.82;;;;;;;;;;5041403;28;20523;-80
2020/12/15 09:10:09;;;;;;;9.80;7.88;;;;;;;;;;5041037;28;20459;-80
2020/12/15 09:12:35;;;;;;;12.60;8.07;;;;;;;;;;5039817;28;20053;-79
2020/12/15 09:15:01;;;;;;;11.68;7.78;;;;;;;;;;5037307;28;20304;-79
2020/12/15 09:17:27;;;;;;;9.85;7.90;;;;;;;;;;5039043;28;20056;-80
2020/12/15 09:19:53;;;;;;;13.73;9.63;;;;;;;;;;5038168;28;20463;-80
2020/12/15 09:22:20;;;;;;;18.63;8.80;;;;;;;;;;5039329;28;20049;-80
2020/12/15 09:24:47;;;;;;;12.02;10.20;;;;;;;;;;5038378;28;20046;-79
2020/12/15 09:27:20;;;;;;;15.02;10.65;;;;;;;;;;5038493;28;20068;-79
2020/12/15 09:29:46;;;;;;;14.23;9.90;;;;;;;;;;5038868;28;20049;-79
2020/12/15 09:32:12;;;;;;;14.77;9.93;;;;;;;;;;5038099;28;20045;-79
2020/12/15 09:34:38;;;;;;;13.57;11.02;;;;;;;;;;5039813;28;20133;-79
2020/12/15 09:37:04;;;;;;;12.23;9.68;;;;;;;;;;5038709;28;20049;-79
2020/12/15 09:39:31;;;;;;;14.10;10.13;;;;;;;;;;5039180;28;20478;-79
2020/12/15 09:41:57;;;;;;;13.10;10.52;;;;;;;;;;5037520;28;20423;-79
2020/12/15 09:44:23;;;;;;;12.32;9.90;;;;;;;;;;5038154;28;20049;-80
2020/12/15 09:46:50;;;;;;;12.23;9.85;;;;;;;;;;5038136;28;20471;-79
2020/12/15 09:49:15;;;;;;;12.35;9.98;;;;;;;;;;5037769;28;20527;-79
2020/12/15 09:51:42;;;;;;;12.50;9.13;;;;;;;;;;5036660;28;20053;-80
2020/12/15 09:54:08;;;;;;;11.45;8.38;;;;;;;;;;5038108;28;20092;-80
2020/12/15 09:56:34;;;;;;;10.75;8.18;;;;;;;;;;5038271;28;20144;-80
2020/12/15 09:59:00;;;;;;;10.25;7.60;;;;;;;;;;5036674;28;20053;-79
2020/12/15 10:01:26;;;;;;;12.50;8.77;;;;;;;;;;5037913;28;20045;-79
2020/12/15 10:03:52;;;;;;;12.38;8.30;;;;;;;;;;5038355;28;20080;-80
2020/12/15 10:06:19;;;;;;;10.88;7.47;;;;;;;;;;5037333;28;20049;-80
2020/12/15 10:08:45;;;;;;;9.32;7.60;;;;;;;;;;5039507;28;20049;-79
2020/12/15 10:11:15;;;;;;;12.23;7.05;;;;;;;;;;5039338;28;20068;-79
2020/12/15 10:13:42;;;;;;;9.85;7.78;;;;;;;;;;5038434;28;20045;-80
2020/12/15 10:16:08;;;;;;;12.68;7.65;;;;;;;;;;5040426;28;20558;-79
2020/12/15 10:18:34;;;;;;;11.02;7.85;;;;;;;;;;5039026;28;20061;-79
2020/12/15 10:21:00;;;;;;;9.25;6.82;;;;;;;;;;5038179;28;20060;-78
2020/12/15 10:23:26;;;;;;;9.48;7.50;;;;;;;;;;5039417;28;20049;-80
2020/12/15 10:25:52;;;;;;;9.57;7.00;;;;;;;;;;5039592;28;20080;-78
2020/12/15 10:28:18;;;;;;;11.00;7.60;;;;;;;;;;5040116;28;20049;-79
2020/12/15 10:30:45;;;;;;;10.23;7.68;;;;;;;;;;5039431;28;20433;-79
2020/12/15 10:33:11;;;;;;;10.43;8.48;;;;;;;;;;5039735;28;20045;-80
2020/12/15 10:35:37;;;;;;;10.85;8.07;;;;;;;;;;5039518;28;20045;-80
2020/12/15 10:38:03;;;;;;;16.08;9.82;;;;;;;;;;5038121;28;20103;-79
2020/12/15 10:40:29;;;;;;;12.25;10.27;;;;;;;;;;5036862;28;20049;-79
2020/12/15 10:42:55;;;;;;;9.43;8.18;;;;;;;;;;5037723;28;20054;-79
2020/12/15 10:45:21;;;;;;;9.82;7.63;;;;;;;;;;5037862;28;20049;-79
2020/12/15 10:47:48;;;;;;;9.57;8.10;;;;;;;;;;5038569;28;20049;-80
2020/12/15 10:50:15;;;;;;;11.90;8.40;;;;;;;;;;5038658;28;20045;-80
2020/12/15 10:52:41;;;;;;;12.77;9.27;;;;;;;;;;5039467;28;20088;-80
2020/12/15 10:55:07;;;;;;;12.05;8.13;;;;;;;;;;5037763;28;20050;-79
2020/12/15 10:57:34;;;;;;;13.25;8.65;;;;;;;;;;5037454;28;20045;-79
2020/12/15 11:00:00;;;;;;;11.90;9.52;;;;;;;;;;5036407;28;20487;-79
2020/12/15 11:02:26;;;;;;;11.40;9.60;;;;;;;;;;5035251;28;20049;-79
2020/12/15 11:04:53;;;;;;;13.77;9.68;;;;;;;;;;5035660;28;20048;-79
2020/12/15 11:07:19;;;;;;;13.88;10.23;;;;;;;;;;5036255;28;20053;-79
2020/12/15 11:09:45;;;;;;;12.13;8.43;;;;;;;;;;5037101;28;20049;-80
2020/12/15 11:12:11;;;;;;;14.75;9.93;;;;;;;;;;5036007;28;20130;-79
2020/12/15 11:14:37;;;;;;;13.45;9.50;;;;;;;;;;5036273;28;20048;-79
2020/12/15 11:17:03;;;;;;;12.68;9.63;;;;;;;;;;5035607;28;20495;-80
2020/12/15 11:19:29;;;;;;;10.05;7.82;;;;;;;;;;5037416;28;20419;-79
2020/12/15 11:21:56;;;;;;;11.07;8.55;;;;;;;;;;5037042;28;20057;-79
2020/12/15 11:24:21;;;;;;;12.25;9.23;;;;;;;;;;5037159;28;20050;-79
2020/12/15 11:26:49;;;;;;;12.10;8.68;;;;;;;;;;5035843;28;20052;-79
2020/12/15 11:29:15;;;;;;;13.00;9.45;;;;;;;;;;5039695;28;20403;-78
2020/12/15 11:31:41;;;;;;;11.48;9.48;;;;;;;;;;5036510;28;20049;-79
2020/12/15 11:34:07;;;;;;;11.57;9.05;;;;;;;;;;5037480;28;20558;-81
2020/12/15 11:36:32;;;;;;;13.90;9.77;;;;;;;;;;5037204;28;20049;-80
2020/12/15 11:38:59;;;;;;;13.02;9.10;;;;;;;;;;5038759;28;20053;-80
2020/12/15 11:41:29;;;;;;;14.25;9.65;;;;;;;;;;5039282;28;20060;-80
2020/12/15 11:43:56;;;;;;;13.38;9.45;;;;;;;;;;5039475;28;20045;-80
2020/12/15 11:46:22;;;;;;;11.50;9.05;;;;;;;;;;5038432;28;20653;-79
2020/12/15 11:48:48;;;;;;;14.68;10.38;;;;;;;;;;5036923;28;20048;-80
2020/12/15 11:51:17;;;;;;;12.40;9.30;;;;;;;;;;5039098;28;20049;-79
2020/12/15 11:53:43;;;;;;;16.85;10.30;;;;;;;;;;5039065;28;20050;-80
2020/12/15 11:56:10;;;;;;;15.13;10.35;;;;;;;;;;5042562;28;20112;-80
2020/12/15 11:58:36;;;;;;;14.55;10.85;;;;;;;;;;5041228;28;20060;-80
2020/12/15 12:01:04;;;;;;;16.98;10.15;;;;;;;;;;5038831;28;20049;-79
2020/12/15 12:03:30;;;;;;;14.68;9.07;;;;;;;;;;5036233;28;20057;-80
2020/12/15 12:05:55;;;;;;;11.70;8.98;;;;;;;;;;5035225;28;20081;-80
2020/12/15 12:08:21;;;;;;;14.63;10.15;;;;;;;;;;5033346;28;20053;-80
2020/12/15 12:10:47;;;;;;;15.38;9.68;;;;;;;;;;5032215;28;20050;-79
2020/12/15 12:13:14;;;;;;;15.52;9.48;;;;;;;;;;5034434;28;20045;-80
2020/12/15 12:15:40;;;;;;;19.17;12.23;;;;;;;;;;5038895;28;20053;-80
2020/12/15 12:18:06;;;;;;;16.73;11.60;;;;;;;;;;5039943;28;20049;-80
2020/12/15 12:20:34;;;;;;;20.48;12.65;;;;;;;;;;5040295;28;20056;-80
2020/12/15 12:23:00;;;;;;;18.98;13.63;;;;;;;;;;5040726;28;20049;-79
2020/12/15 12:25:26;;;;;;;17.52;12.38;;;;;;;;;;5037432;28;20384;-79
2020/12/15 12:27:52;;;;;;;18.67;11.48;;;;;;;;;;5035787;28;20604;-80
2020/12/15 12:30:19;;;;;;;15.57;11.55;;;;;;;;;;5037026;28;20057;-80
2020/12/15 12:32:45;;;;;;;13.80;10.25;;;;;;;;;;5037761;28;20056;-79
2020/12/15 12:35:11;;;;;;;15.18;11.77;;;;;;;;;;5035982;28;20398;-78
2020/12/15 12:37:37;;;;;;;20.25;11.95;;;;;;;;;;5035316;28;20534;-78
2020/12/15 12:40:04;;;;;;;12.32;9.25;;;;;;;;;;5036067;28;20123;-78
2020/12/15 12:42:29;;;;;;;11.70;9.77;;;;;;;;;;5035506;28;20100;-78
2020/12/15 12:44:55;;;;;;;13.18;10.02;;;;;;;;;;5040455;28;20046;-79
2020/12/15 12:47:22;;;;;;;12.43;8.93;;;;;;;;;;5041738;28;20053;-79
2020/12/15 12:49:48;;;;;;;15.93;12.65;;;;;;;;;;5037397;28;20057;-79
2020/12/15 12:52:14;;;;;;;15.15;11.35;;;;;;;;;;5036813;28;20451;-79
2020/12/15 12:54:40;;;;;;;14.43;9.23;;;;;;;;;;5035463;28;20442;-79
2020/12/15 12:57:06;;;;;;;16.02;9.27;;;;;;;;;;5037044;28;20049;-80
2020/12/15 12:59:32;;;;;;;12.10;8.93;;;;;;;;;;5034935;28;20104;-79
2020/12/15 13:01:59;;;;;;;12.27;9.32;;;;;;;;;;5035082;28;20045;-79
2020/12/15 13:04:26;;;;;;;13.95;9.50;;;;;;;;;;5035115;28;20045;-80
2020/12/15 13:06:52;;;;;;;13.35;10.00;;;;;;;;;;5035179;28;20061;-79
2020/12/15 13:09:18;;;;;;;11.50;9.45;;;;;;;;;;5038448;28;20136;-80
2020/12/15 13:11:44;;;;;;;13.63;10.10;;;;;;;;;;5037303;28;20060;-79
2020/12/15 13:14:10;;;;;;;17.30;10.13;;;;;;;;;;5020296;28;20042;-79
2020/12/15 13:16:36;;;;;;;14.13;10.65;;;;;;;;;;5018064;28;20049;-78
2020/12/15 13:19:03;;;;;;;13.20;9.80;;;;;;;;;;5025633;28;20052;-79
2020/12/15 13:21:30;;;;;;;12.43;10.20;;;;;;;;;;5027472;28;20612;-79
2020/12/15 13:23:56;;;;;;;12.35;9.40;;;;;;;;;;5051187;28;20053;-78
2020/12/15 13:26:22;;;;;;;13.27;9.82;;;;;;;;;;5035101;28;20057;-79
2020/12/15 13:28:48;;;;;;;13.10;10.88;;;;;;;;;;5052489;28;20076;-79
2020/12/15 13:31:15;;;;;;;15.20;11.05;;;;;;;;;;5044047;28;20053;-79
2020/12/15 13:33:41;;;;;;;18.35;12.55;;;;;;;;;;5040145;28;20044;-79
2020/12/15 13:36:08;;;;;;;18.58;14.00;;;;;;;;;;5044548;28;20119;-79
2020/12/15 13:38:41;;;;;;;16.75;12.48;;;;;;;;;;5045496;28;20049;-79
2020/12/15 13:41:08;;;;;;;16.45;11.65;;;;;;;;;;5052803;28;20053;-78
2020/12/15 13:43:34;;;;;;;14.85;9.98;;;;;;;;;;5053865;28;20045;-78
2020/12/15 13:46:00;;;;;;;13.50;9.88;;;;;;;;;;5048030;28;20041;-79
2020/12/15 13:48:26;;;;;;;11.35;8.95;;;;;;;;;;5048101;28;20037;-78
2020/12/15 13:50:52;;;;;;;12.68;9.73;;;;;;;;;;5033976;28;20403;-78
2020/12/15 13:53:18;;;;;;;14.52;11.07;;;;;;;;;;5039617;28;20557;-78
2020/12/15 13:55:45;;;;;;;14.45;11.20;;;;;;;;;;5038527;28;20037;-79
2020/12/15 13:58:11;;;;;;;13.20;10.05;;;;;;;;;;5052257;28;20426;-79
2020/12/15 14:00:39;;;;;;;11.65;9.98;;;;;;;;;;5055468;28;20135;-80
2020/12/15 14:03:05;;;;;;;15.60;11.38;;;;;;;;;;5053938;28;20045;-78
2020/12/15 14:05:31;;;;;;;14.57;11.43;;;;;;;;;;5050972;28;20045;-78
2020/12/15 14:07:57;;;;;;;13.63;10.30;;;;;;;;;;5040121;28;20044;-79
2020/12/15 14:10:23;;;;;;;15.30;10.13;;;;;;;;;;5048010;28;20049;-79
2020/12/15 14:12:50;;;;;;;15.68;10.40;;;;;;;;;;5054138;28;20106;-79
2020/12/15 14:15:16;;;;;;;17.48;10.77;;;;;;;;;;5054371;28;20068;-80
2020/12/15 14:17:43;;;;;;;15.32;11.55;;;;;;;;;;5054012;28;20509;-79
2020/12/15 14:20:09;;;;;;;14.38;10.73;;;;;;;;;;5054708;28;20140;-79
2020/12/15 14:22:34;;;;;;;14.25;10.60;;;;;;;;;;5040791;28;20052;-80
2020/12/15 14:25:01;;;;;;;16.23;10.40;;;;;;;;;;5034578;28;20045;-80
2020/12/15 14:27:27;;;;;;;15.88;10.68;;;;;;;;;;5035690;28;20056;-79
2020/12/15 14:29:54;;;;;;;13.90;10.90;;;;;;;;;;5043813;28;20120;-79
2020/12/15 14:32:20;;;;;;;18.10;13.75;;;;;;;;;;5035891;28;20053;-79
2020/12/15 14:34:46;;;;;;;14.82;11.30;;;;;;;;;;5033782;28;20104;-79
2020/12/15 14:37:12;;;;;;;19.23;12.88;;;;;;;;;;5035093;28;20198;-79
2020/12/15 14:39:48;;;;;;;18.63;12.88;;;;;;;;;;5042048;28;20057;-79
2020/12/15 14:42:14;;;;;;;15.32;12.32;;;;;;;;;;5043294;28;20079;-79
2020/12/15 14:44:40;;;;;;;14.25;10.52;;;;;;;;;;5054129;28;20499;-80
2020/12/15 14:47:07;;;;;;;15.55;10.50;;;;;;;;;;5054371;28;20056;-80
2020/12/15 14:49:33;;;;;;;14.90;10.13;;;;;;;;;;5054966;28;20049;-81
2020/12/15 14:51:59;;;;;;;15.07;10.88;;;;;;;;;;5043063;28;20121;-81
2020/12/15 14:54:24;;;;;;;15.07;10.55;;;;;;;;;;5027886;28;20049;-80
2020/12/15 14:56:51;;;;;;;14.07;9.65;;;;;;;;;;5034330;28;20101;-80
2020/12/15 14:59:19;;;;;;;15.68;10.80;;;;;;;;;;5053265;28;20195;-80
2020/12/15 15:01:45;;;;;;;15.75;10.65;;;;;;;;;;5053131;28;20053;-81
2020/12/15 15:04:11;;;;;;;15.02;10.65;;;;;;;;;;5033780;28;20057;-81